Time;durP1;ratioP1;P1;durP2;ratioP2;P2;SDS_P1;SDS_P2;PMS_P1;PMS_P2;Temp;Humidity;BMP_temperature;BMP_pressure;BME280_temperature;BME280_humidity;BME280_pressure;Samples;Min_cycle;Max_cycle;Signal;HPM_P1;HPM_P2
2023/06/26 00:01:33;;;;;;;2.13;2.13;;;;;;;20.27;100.00;96530.06;4948251;28;20058;-61
2023/06/26 00:04:01;;;;;;;1.80;1.80;;;;;;;20.18;100.00;96506.63;4962743;28;20061;-61
2023/06/26 00:06:28;;;;;;;1.80;1.80;;;;;;;20.15;100.00;96530.00;4962625;28;20047;-61
2023/06/26 00:08:56;;;;;;;1.92;1.92;;;;;;;19.27;100.00;96420.78;4947532;28;20058;-61
2023/06/26 00:11:22;;;;;;;1.70;1.70;;;;;;;20.02;100.00;96520.72;4947734;28;20515;-61
2023/06/26 00:13:49;;;;;;;1.85;1.85;;;;;;;20.16;100.00;96520.34;4947867;28;20755;-62
2023/06/26 00:16:16;;;;;;;1.83;1.83;;;;;;;20.24;100.00;96528.13;4947869;29;20051;-61
2023/06/26 00:18:43;;;;;;;2.10;2.10;;;;;;;19.76;100.00;96463.59;4947928;28;20275;-63
2023/06/26 00:21:09;;;;;;;2.00;2.00;;;;;;;20.21;100.00;96529.03;4947368;28;20055;-61
2023/06/26 00:23:36;;;;;;;2.00;2.00;;;;;;;20.25;100.00;96523.31;4947682;28;20078;-63
2023/06/26 00:26:05;;;;;;;2.03;2.03;;;;;;;20.26;100.00;96519.25;4947578;28;20051;-63
2023/06/26 00:28:32;;;;;;;2.20;2.20;;;;;;;20.27;100.00;96526.44;4948000;28;20143;-62
2023/06/26 00:30:59;;;;;;;1.90;1.90;;;;;;;20.19;100.00;96536.31;4947572;28;20055;-62
2023/06/26 00:33:26;;;;;;;2.13;2.13;;;;;;;20.03;100.00;96534.31;4947500;28;20051;-62
2023/06/26 00:35:53;;;;;;;1.90;1.90;;;;;;;19.68;100.00;96469.88;4947370;28;20051;-62
2023/06/26 00:38:20;;;;;;;1.90;1.90;;;;;;;19.76;100.00;96535.91;4947262;28;20062;-62
2023/06/26 00:40:46;;;;;;;2.00;2.00;;;;;;;19.40;100.00;96449.75;4947300;28;20063;-61
2023/06/26 00:43:13;;;;;;;1.85;1.85;;;;;;;19.84;100.00;96528.88;4947496;28;20746;-62
2023/06/26 00:45:40;;;;;;;1.70;1.70;;;;;;;19.72;100.00;96526.78;4947453;28;20073;-62
2023/06/26 00:48:11;;;;;;;1.90;1.90;;;;;;;19.85;100.00;96539.66;4977285;28;20054;-62
2023/06/26 00:50:40;;;;;;;1.70;1.70;;;;;;;19.83;100.00;96530.88;4947492;28;20427;-62
2023/06/26 00:53:07;;;;;;;1.88;1.88;;;;;;;19.55;100.00;96526.78;4961345;28;20532;-62
2023/06/26 00:55:34;;;;;;;1.80;1.80;;;;;;;19.81;100.00;96526.91;4947293;28;20063;-63
2023/06/26 00:58:01;;;;;;;2.05;2.05;;;;;;;19.97;100.00;96518.44;4961942;28;20052;-62
2023/06/26 01:00:28;;;;;;;2.00;2.00;;;;;;;19.73;100.00;96480.59;4947036;28;20055;-62
2023/06/26 01:02:58;;;;;;;1.90;1.90;;;;;;;19.93;100.00;96523.38;4947115;28;20055;-62
2023/06/26 01:05:27;;;;;;;1.90;1.90;;;;;;;19.88;100.00;96515.50;4946814;28;20055;-63
2023/06/26 01:07:55;;;;;;;1.95;1.95;;;;;;;19.77;100.00;96470.81;4946044;28;20055;-61
2023/06/26 01:10:22;;;;;;;2.00;2.00;;;;;;;20.05;100.00;96509.38;4947115;28;20055;-61
2023/06/26 01:12:49;;;;;;;2.10;2.10;;;;;;;19.98;100.00;96503.16;4947210;28;20055;-62
2023/06/26 01:15:16;;;;;;;2.05;2.05;;;;;;;19.94;100.00;96525.75;4946506;28;20062;-61
2023/06/26 01:17:45;;;;;;;2.10;2.10;;;;;;;19.95;100.00;96509.69;4946786;29;20089;-62
2023/06/26 01:20:12;;;;;;;1.83;1.83;;;;;;;19.96;100.00;96516.88;4961751;28;20057;-62
2023/06/26 01:22:45;;;;;;;1.95;1.95;;;;;;;19.93;100.00;96512.13;4946562;28;20134;-62
2023/06/26 01:25:41;;;;;;;1.90;1.90;;;;;;;19.87;100.00;96519.53;4947111;28;20055;-62
2023/06/26 01:28:11;;;;;;;1.98;1.98;;;;;;;19.89;100.00;96517.06;4947096;29;20055;-62
2023/06/26 01:30:43;;;;;;;1.60;1.60;;;;;;;19.86;100.00;96512.31;4946492;29;20484;-62
2023/06/26 01:33:10;;;;;;;1.90;1.90;;;;;;;19.87;100.00;96503.44;4946141;28;20051;-61
2023/06/26 01:35:37;;;;;;;1.83;1.83;;;;;;;19.64;100.00;96450.31;4946542;28;20059;-63
2023/06/26 01:38:19;;;;;;;2.13;2.13;;;;;;;19.90;100.00;96490.53;4961050;28;20059;-61
2023/06/26 01:40:46;;;;;;;1.88;1.88;;;;;;;19.85;100.00;96488.28;4946283;28;20058;-62
2023/06/26 01:43:36;;;;;;;1.90;1.90;;;;;;;19.49;100.00;96421.00;4946363;28;20063;-62
2023/06/26 01:46:14;;;;;;;2.17;2.17;;;;;;;19.83;100.00;96479.47;4945978;29;20501;-62
2023/06/26 01:48:55;;;;;;;2.13;2.13;;;;;;;19.89;100.00;96483.31;4946210;28;20051;-62
2023/06/26 01:51:30;;;;;;;1.88;1.88;;;;;;;19.87;100.00;96480.19;4946042;28;20057;-61
2023/06/26 01:53:58;;;;;;;2.08;2.08;;;;;;;19.84;100.00;96464.22;4946502;28;20051;-62
2023/06/26 01:56:28;;;;;;;1.90;1.90;;;;;;;19.93;100.00;96467.97;4946472;28;20051;-63
2023/06/26 01:58:56;;;;;;;2.00;2.00;;;;;;;19.92;100.00;96471.19;4946597;28;20146;-62
2023/06/26 02:01:23;;;;;;;1.90;1.90;;;;;;;19.94;100.00;96474.34;4960979;28;20051;-61
2023/06/26 02:03:50;;;;;;;1.80;1.80;;;;;;;19.67;100.00;96455.03;4946472;28;20113;-62
2023/06/26 02:06:17;;;;;;;2.00;2.00;;;;;;;19.52;100.00;96456.69;4946588;28;20070;-62
2023/06/26 02:08:44;;;;;;;1.90;1.90;;;;;;;19.69;100.00;96502.38;4960829;28;20134;-62
2023/06/26 02:11:10;;;;;;;1.90;1.90;;;;;;;19.64;100.00;96500.09;4946608;28;20089;-61
2023/06/26 02:13:37;;;;;;;1.85;1.85;;;;;;;19.58;100.00;96485.00;4946171;28;20051;-62
2023/06/26 02:16:04;;;;;;;1.98;1.98;;;;;;;19.65;100.00;96479.19;4960769;28;20061;-61
2023/06/26 02:18:30;;;;;;;1.77;1.77;;;;;;;19.46;100.00;96445.19;4963402;28;20070;-62
2023/06/26 02:20:57;;;;;;;1.98;1.98;;;;;;;19.67;100.00;96488.75;4937345;29;20056;-61
2023/06/26 02:23:23;;;;;;;2.00;2.00;;;;;;;19.79;100.00;96495.66;4931069;29;20140;-62
2023/06/26 02:25:50;;;;;;;1.67;1.67;;;;;;;19.78;100.00;96486.44;4930791;29;20058;-62
2023/06/26 02:28:17;;;;;;;1.73;1.73;;;;;;;19.79;100.00;96492.88;4930680;29;20058;-61
2023/06/26 02:30:44;;;;;;;1.80;1.80;;;;;;;19.90;100.00;96479.28;4930602;29;20051;-61
2023/06/26 02:33:10;;;;;;;1.90;1.90;;;;;;;19.62;100.00;96475.25;4932710;29;20126;-61
2023/06/26 02:35:37;;;;;;;1.70;1.70;;;;;;;19.60;100.00;96493.78;4949516;28;20130;-61
2023/06/26 02:38:04;;;;;;;1.80;1.80;;;;;;;19.64;100.00;96483.22;4949293;29;20139;-61
2023/06/26 02:40:31;;;;;;;1.70;1.70;;;;;;;19.66;100.00;96467.53;4964157;28;20058;-61
2023/06/26 02:42:57;;;;;;;1.95;1.95;;;;;;;19.68;100.00;96467.84;4949564;28;20047;-61
2023/06/26 02:45:24;;;;;;;2.05;2.05;;;;;;;19.43;100.00;96513.47;4964474;28;20063;-61
2023/06/26 02:47:50;;;;;;;1.90;1.90;;;;;;;19.61;100.00;96495.34;4949210;28;20069;-62
2023/06/26 02:50:17;;;;;;;1.80;1.80;;;;;;;19.64;100.00;96472.78;4963820;28;20055;-61
2023/06/26 02:52:44;;;;;;;1.80;1.80;;;;;;;19.80;100.00;96486.00;4949120;28;20051;-61
2023/06/26 02:55:11;;;;;;;1.90;1.90;;;;;;;19.68;100.00;96472.69;4949584;28;20066;-61
2023/06/26 02:57:38;;;;;;;1.80;1.80;;;;;;;19.98;100.00;96492.69;4964239;28;20461;-61
2023/06/26 03:00:08;;;;;;;1.95;1.95;;;;;;;20.01;100.00;96488.22;4949407;28;20055;-61
2023/06/26 03:02:34;;;;;;;2.00;2.00;;;;;;;19.93;100.00;96490.44;4949522;28;20171;-62
2023/06/26 03:05:01;;;;;;;1.70;1.70;;;;;;;20.04;100.00;96490.13;4949688;28;20353;-61
2023/06/26 03:07:28;;;;;;;1.90;1.90;;;;;;;20.03;100.00;96491.38;4949280;28;20051;-62
2023/06/26 03:09:55;;;;;;;1.83;1.83;;;;;;;20.06;100.00;96510.16;4949515;28;20051;-62
2023/06/26 03:12:21;;;;;;;1.98;1.98;;;;;;;20.06;100.00;96510.16;4948654;28;20062;-61
2023/06/26 03:14:48;;;;;;;1.95;1.95;;;;;;;20.08;100.00;96502.84;4949225;28;20061;-62
2023/06/26 03:17:14;;;;;;;1.85;1.85;;;;;;;20.11;100.00;96506.78;4948811;28;20552;-61
2023/06/26 03:19:41;;;;;;;1.98;1.98;;;;;;;20.19;100.00;96502.56;4963889;28;20051;-61
2023/06/26 03:22:08;;;;;;;1.95;1.95;;;;;;;20.32;100.00;96509.00;4948898;28;20051;-61
2023/06/26 03:24:34;;;;;;;2.13;2.13;;;;;;;20.44;100.00;96503.41;4948717;28;20258;-61
2023/06/26 03:27:01;;;;;;;2.08;2.08;;;;;;;20.39;100.00;96494.75;4963199;28;20426;-61
2023/06/26 03:29:29;;;;;;;1.90;1.90;;;;;;;20.47;100.00;96518.63;4947797;28;20055;-61
2023/06/26 03:31:56;;;;;;;2.00;2.00;;;;;;;20.47;100.00;96518.63;4963286;28;20069;-61
2023/06/26 03:34:23;;;;;;;2.00;2.00;;;;;;;20.43;100.00;96512.31;4963047;28;20051;-60
2023/06/26 03:36:50;;;;;;;1.90;1.90;;;;;;;20.47;100.00;96513.00;4948602;28;20051;-60
2023/06/26 03:39:16;;;;;;;1.90;1.90;;;;;;;20.49;100.00;96521.75;4948359;28;20051;-61
2023/06/26 03:41:43;;;;;;;1.88;1.88;;;;;;;20.23;100.00;96481.53;4948472;28;20626;-61
2023/06/26 03:44:09;;;;;;;2.10;2.10;;;;;;;20.44;100.00;96503.41;4963249;28;20047;-61
2023/06/26 03:46:36;;;;;;;1.90;1.90;;;;;;;20.53;100.00;96522.47;4962486;28;20058;-61
2023/06/26 03:49:03;;;;;;;1.90;1.90;;;;;;;20.60;100.00;96516.59;4948250;28;20051;-61
2023/06/26 03:51:29;;;;;;;1.90;1.90;;;;;;;20.24;100.00;96488.75;4948108;28;20074;-63
2023/06/26 03:53:56;;;;;;;1.88;1.88;;;;;;;20.57;100.00;96500.59;4948444;28;20051;-61
2023/06/26 03:56:23;;;;;;;2.05;2.05;;;;;;;20.65;100.00;96507.59;4962617;28;20051;-62
2023/06/26 03:58:49;;;;;;;1.98;1.98;;;;;;;20.80;100.00;96508.75;4948330;28;20065;-60
2023/06/26 04:01:16;;;;;;;2.00;2.00;;;;;;;20.80;100.00;96503.88;4948282;28;20055;-63
2023/06/26 04:03:43;;;;;;;2.10;2.10;;;;;;;20.65;100.00;96471.81;4948109;29;20055;-60
2023/06/26 04:06:09;;;;;;;1.98;1.98;;;;;;;20.86;100.00;96512.56;4947933;28;20055;-62
2023/06/26 04:08:36;;;;;;;2.00;2.00;;;;;;;20.95;100.00;96504.22;4929220;28;20521;-61
2023/06/26 04:11:03;;;;;;;2.03;2.03;;;;;;;20.99;100.00;96504.94;4928730;29;20064;-62
2023/06/26 04:13:29;;;;;;;2.05;2.05;;;;;;;20.95;100.00;96499.38;4929156;29;20048;-60
2023/06/26 04:15:56;;;;;;;2.10;2.10;;;;;;;21.13;100.00;96510.13;4928548;29;20064;-61
2023/06/26 04:18:23;;;;;;;2.10;2.10;;;;;;;21.07;100.00;96511.91;4959343;28;20048;-60
2023/06/26 04:21:08;;;;;;;2.00;2.00;;;;;;;21.16;100.00;96509.19;4959082;28;20055;-61
2023/06/26 04:23:35;;;;;;;2.00;2.00;;;;;;;21.18;100.00;96506.72;4928704;29;20138;-61
2023/06/26 04:26:02;;;;;;;2.00;2.00;;;;;;;21.03;100.00;96505.59;4958819;28;20078;-62
2023/06/26 04:28:29;;;;;;;2.15;2.15;;;;;;;20.89;100.00;96489.94;4928528;29;20145;-60
2023/06/26 04:30:56;;;;;;;2.08;2.08;;;;;;;20.83;100.00;96474.06;4928528;29;20059;-61
2023/06/26 04:33:23;;;;;;;1.92;1.92;;;;;;;21.14;100.00;96534.22;4959878;28;20066;-61
2023/06/26 04:35:50;;;;;;;2.20;2.20;;;;;;;21.08;100.00;96523.97;4947128;28;20055;-60
2023/06/26 04:38:16;;;;;;;2.28;2.28;;;;;;;21.02;100.00;96532.19;4947120;28;20051;-61
2023/06/26 04:40:43;;;;;;;2.20;2.20;;;;;;;20.94;100.00;96530.81;4947228;28;20103;-62
2023/06/26 04:43:10;;;;;;;1.95;1.95;;;;;;;20.98;100.00;96542.78;4947140;29;20138;-61
2023/06/26 04:45:37;;;;;;;1.85;1.85;;;;;;;20.94;100.00;96551.31;4947237;28;20066;-60
2023/06/26 04:48:05;;;;;;;2.20;2.20;;;;;;;20.77;100.00;96532.16;4961729;28;20214;-61
2023/06/26 04:50:33;;;;;;;2.10;2.10;;;;;;;20.52;100.00;96560.25;4946826;28;20146;-60
2023/06/26 04:53:00;;;;;;;2.05;2.05;;;;;;;20.70;100.00;96549.25;4947102;28;20154;-60
2023/06/26 04:55:27;;;;;;;2.05;2.05;;;;;;;20.73;100.00;96551.97;4961004;28;20065;-60
2023/06/26 04:57:53;;;;;;;1.98;1.98;;;;;;;20.75;100.00;96545.91;4945553;28;20051;-60
2023/06/26 05:00:20;;;;;;;2.08;2.08;;;;;;;20.48;100.00;96508.94;4960136;28;20059;-60
2023/06/26 05:02:47;;;;;;;1.90;1.90;;;;;;;20.63;100.00;96555.09;4961499;28;20125;-60
2023/06/26 05:05:14;;;;;;;2.05;2.05;;;;;;;20.44;100.00;96530.75;4947134;28;20071;-60
2023/06/26 05:07:42;;;;;;;2.13;2.13;;;;;;;20.22;100.00;96501.66;4961581;28;20051;-61
2023/06/26 05:10:08;;;;;;;2.13;2.13;;;;;;;20.63;100.00;96563.53;4961583;28;20547;-61
2023/06/26 05:12:35;;;;;;;2.00;2.00;;;;;;;20.77;100.00;96560.31;4945628;29;20073;-60
2023/06/26 05:15:02;;;;;;;2.10;2.10;;;;;;;20.83;100.00;96573.38;4945192;28;20066;-60
2023/06/26 05:17:29;;;;;;;1.95;1.95;;;;;;;20.20;100.00;96470.41;4959601;28;20050;-59
2023/06/26 05:19:56;;;;;;;2.10;2.10;;;;;;;20.34;100.00;96529.06;4944885;28;20083;-62
2023/06/26 05:22:23;;;;;;;2.05;2.05;;;;;;;20.42;100.00;96578.25;4944418;28;20665;-61
2023/06/26 05:24:53;;;;;;;2.10;2.10;;;;;;;20.46;100.00;96578.94;4944912;28;20074;-62
2023/06/26 05:27:21;;;;;;;1.85;1.85;;;;;;;20.45;100.00;96588.63;4960352;28;20047;-61
2023/06/26 05:29:49;;;;;;;1.85;1.85;;;;;;;20.45;100.00;96594.25;4947019;28;20050;-61
2023/06/26 05:32:20;;;;;;;1.98;1.98;;;;;;;20.43;100.00;96603.13;4946591;28;20059;-62
2023/06/26 05:34:52;;;;;;;2.15;2.15;;;;;;;20.37;100.00;96609.75;4961344;28;20142;-62
2023/06/26 05:37:21;;;;;;;1.90;1.90;;;;;;;20.22;100.00;96602.94;4946264;28;20063;-62
2023/06/26 05:39:48;;;;;;;1.80;1.80;;;;;;;19.43;100.00;96552.00;4946219;28;20058;-60
2023/06/26 05:42:15;;;;;;;1.85;1.85;;;;;;;19.57;100.00;96564.91;4946565;28;20522;-61
2023/06/26 05:44:42;;;;;;;1.80;1.80;;;;;;;20.01;100.00;96618.31;4946164;28;20066;-61
2023/06/26 05:47:09;;;;;;;1.88;1.88;;;;;;;20.04;100.00;96620.28;4946095;28;20271;-62
2023/06/26 05:49:36;;;;;;;1.90;1.90;;;;;;;19.97;100.00;96614.84;4946675;28;20055;-63
2023/06/26 05:52:03;;;;;;;1.90;1.90;;;;;;;19.95;100.00;96616.53;4960224;28;20523;-62
2023/06/26 05:54:29;;;;;;;2.15;2.15;;;;;;;19.87;100.00;96620.75;4946124;28;20055;-63
2023/06/26 05:57:00;;;;;;;2.08;2.08;;;;;;;19.48;100.00;96577.56;4946231;28;20051;-62
2023/06/26 05:59:28;;;;;;;1.80;1.80;;;;;;;19.86;100.00;96624.78;4946318;28;20117;-62
2023/06/26 06:01:55;;;;;;;1.88;1.88;;;;;;;19.88;100.00;96611.06;4946317;29;20062;-62
2023/06/26 06:04:22;;;;;;;1.75;1.75;;;;;;;19.62;100.00;96570.00;4960752;28;20126;-62
2023/06/26 06:06:48;;;;;;;1.90;1.90;;;;;;;19.89;100.00;96618.25;4946551;28;20447;-62
2023/06/26 06:09:15;;;;;;;2.00;2.00;;;;;;;19.74;100.00;96574.91;4937372;28;20083;-64
2023/06/26 06:11:42;;;;;;;1.95;1.95;;;;;;;19.98;100.00;96604.38;4926692;29;20569;-62
2023/06/26 06:14:08;;;;;;;1.80;1.80;;;;;;;19.93;100.00;96602.09;4927333;29;20048;-62
2023/06/26 06:16:35;;;;;;;2.00;2.00;;;;;;;19.93;100.00;96585.22;4957553;28;20056;-62
2023/06/26 06:19:03;;;;;;;2.00;2.00;;;;;;;19.94;100.00;96598.06;4927031;29;20068;-62
2023/06/26 06:21:30;;;;;;;1.77;1.77;;;;;;;19.96;100.00;96606.84;4926651;29;20067;-62
2023/06/26 06:23:56;;;;;;;1.90;1.90;;;;;;;19.94;100.00;96603.69;4927191;29;20060;-62
2023/06/26 06:26:23;;;;;;;2.00;2.00;;;;;;;20.11;100.00;96596.78;4926724;28;20138;-62
2023/06/26 06:28:50;;;;;;;1.63;1.63;;;;;;;20.17;100.00;96593.00;4926766;29;20051;-62
2023/06/26 06:31:17;;;;;;;2.00;2.00;;;;;;;20.20;100.00;96599.78;4926292;29;20138;-61
2023/06/26 06:33:43;;;;;;;2.00;2.00;;;;;;;19.95;100.00;96579.97;4956856;28;20504;-61
2023/06/26 06:36:10;;;;;;;1.83;1.83;;;;;;;20.18;100.00;96591.78;4944620;28;20059;-61
2023/06/26 06:38:37;;;;;;;1.88;1.88;;;;;;;20.31;100.00;96603.88;4944962;28;20055;-60
2023/06/26 06:41:03;;;;;;;1.90;1.90;;;;;;;20.27;100.00;96588.31;4959582;28;20062;-60
2023/06/26 06:43:30;;;;;;;2.10;2.10;;;;;;;20.17;100.00;96600.69;4945024;28;20047;-61
2023/06/26 06:45:57;;;;;;;2.05;2.05;;;;;;;20.28;100.00;96589.94;4944700;28;20055;-60
2023/06/26 06:48:23;;;;;;;1.85;1.85;;;;;;;20.07;100.00;96537.03;4945081;28;20056;-61
2023/06/26 06:50:50;;;;;;;1.77;1.77;;;;;;;19.93;100.00;96509.31;4960305;28;20066;-60
2023/06/26 06:53:20;;;;;;;1.90;1.90;;;;;;;20.55;100.00;96593.16;4945371;28;20061;-61
2023/06/26 06:55:47;;;;;;;2.00;2.00;;;;;;;20.59;100.00;96588.19;4938096;28;20155;-61
2023/06/26 06:58:13;;;;;;;1.90;1.90;;;;;;;20.45;100.00;96560.47;4986011;28;21101;-61
2023/06/26 07:00:40;;;;;;;1.90;1.90;;;;;;;20.73;100.00;96593.41;4964281;28;20113;-60
2023/06/26 07:03:07;;;;;;;2.17;2.17;;;;;;;20.86;100.00;96595.03;4964406;28;20059;-60
2023/06/26 07:05:34;;;;;;;2.20;2.20;;;;;;;21.24;100.00;96589.44;4982734;28;20050;-62
2023/06/26 07:08:00;;;;;;;2.28;2.25;;;;;;;21.22;100.00;96602.38;4984325;28;20493;-61
2023/06/26 07:10:28;;;;;;;2.00;2.00;;;;;;;21.28;100.00;96597.75;4984179;28;20563;-60
2023/06/26 07:12:55;;;;;;;2.42;2.33;;;;;;;21.07;100.00;96556.19;4984359;28;20530;-61
2023/06/26 07:15:22;;;;;;;2.13;2.13;;;;;;;21.33;100.00;96563.38;4984103;28;20061;-61
2023/06/26 07:17:51;;;;;;;1.92;1.92;;;;;;;21.16;100.00;96588.09;4984396;28;20058;-62
2023/06/26 07:20:18;;;;;;;1.98;1.98;;;;;;;21.49;100.00;96595.06;4984182;28;20078;-61
2023/06/26 07:22:44;;;;;;;2.10;2.10;;;;;;;21.59;100.00;96571.34;4983891;28;20433;-62
2023/06/26 07:25:11;;;;;;;2.50;2.40;;;;;;;21.61;100.00;96568.09;4983993;28;20050;-62
2023/06/26 07:27:39;;;;;;;2.10;2.10;;;;;;;22.00;100.00;96607.81;4983817;28;20069;-62
2023/06/26 07:30:08;;;;;;;2.15;2.15;;;;;;;21.69;100.00;96550.47;4967735;28;20064;-63
2023/06/26 07:32:35;;;;;;;2.50;2.40;;;;;;;22.27;100.00;96608.06;4984190;28;20164;-62
2023/06/26 07:35:02;;;;;;;2.67;2.58;;;;;;;22.44;100.00;96612.31;4982895;28;20046;-61
2023/06/26 07:37:29;;;;;;;2.22;2.22;;;;;;;22.60;100.00;96604.91;4986880;28;20143;-60
2023/06/26 07:39:55;;;;;;;2.20;2.20;;;;;;;22.55;100.00;96591.38;4987468;28;20375;-60
2023/06/26 07:42:22;;;;;;;2.47;2.38;;;;;;;22.62;100.00;96608.06;4987013;28;20532;-60
2023/06/26 07:44:49;;;;;;;2.35;2.30;;;;;;;22.49;100.00;96560.88;4987247;28;20071;-62
2023/06/26 07:47:16;;;;;;;2.65;2.55;;;;;;;22.43;100.00;96561.91;4986391;28;20453;-61
2023/06/26 07:49:42;;;;;;;2.28;2.28;;;;;;;22.92;100.00;96610.16;4986910;28;20097;-61
2023/06/26 07:52:12;;;;;;;2.92;2.83;;;;;;;23.34;100.00;96631.09;4986809;28;20058;-61
2023/06/26 07:54:39;;;;;;;2.53;2.42;;;;;;;23.64;94.37;96633.13;4987194;28;20145;-62
2023/06/26 07:57:08;;;;;;;2.97;2.88;;;;;;;24.06;93.34;96625.69;4986619;28;20066;-61
2023/06/26 07:59:35;;;;;;;3.10;3.00;;;;;;;24.39;93.66;96591.94;4987100;28;20080;-60
2023/06/26 08:02:03;;;;;;;2.97;2.88;;;;;;;24.94;89.82;96633.91;5001345;28;20060;-60
2023/06/26 08:04:31;;;;;;;2.85;2.75;;;;;;;25.15;89.25;96644.28;4986919;28;20145;-60
2023/06/26 08:07:00;;;;;;;3.22;3.13;;;;;;;25.18;85.89;96626.31;4986804;28;20058;-60
2023/06/26 08:09:28;;;;;;;2.92;2.83;;;;;;;25.47;84.90;96616.47;4986556;28;20057;-60
2023/06/26 08:11:55;;;;;;;3.58;3.47;;;;;;;25.78;85.02;96626.25;4986211;28;20142;-60
2023/06/26 08:14:23;;;;;;;3.20;3.10;;;;;;;26.00;84.13;96628.84;4986623;28;20500;-60
2023/06/26 08:16:50;;;;;;;3.53;3.42;;;;;;;26.16;83.77;96625.63;4985899;28;20054;-61
2023/06/26 08:19:17;;;;;;;3.63;3.53;;;;;;;25.98;79.97;96591.63;4986480;28;20065;-60
2023/06/26 08:21:45;;;;;;;3.60;3.50;;;;;;;26.04;81.89;96630.25;4985989;28;20109;-61
2023/06/26 08:24:18;;;;;;;3.58;3.47;;;;;;;25.72;81.43;96627.41;4986465;28;20101;-60
2023/06/26 08:26:46;;;;;;;3.30;3.20;;;;;;;25.54;82.14;96619.78;4986023;28;20108;-60
2023/06/26 08:29:13;;;;;;;3.15;3.05;;;;;;;25.44;80.34;96626.72;4986335;28;20050;-61
2023/06/26 08:31:42;;;;;;;3.40;3.30;;;;;;;25.41;82.00;96626.91;4986400;28;20077;-60
2023/06/26 08:34:09;;;;;;;3.22;3.13;;;;;;;25.55;78.05;96631.88;4989478;28;20108;-61
2023/06/26 08:36:35;;;;;;;3.20;3.10;;;;;;;25.46;80.92;96629.09;5004376;28;20157;-60
2023/06/26 08:39:04;;;;;;;3.25;3.15;;;;;;;25.57;80.00;96629.34;5005924;28;20053;-60
2023/06/26 08:41:31;;;;;;;3.28;3.17;;;;;;;26.16;74.84;96629.22;5005180;28;20054;-60
2023/06/26 08:43:58;;;;;;;3.70;3.60;;;;;;;26.55;70.73;96630.03;5020353;28;20054;-61
2023/06/26 08:46:25;;;;;;;3.70;3.60;;;;;;;26.86;72.04;96599.16;5004746;28;20563;-62
2023/06/26 08:48:56;;;;;;;3.92;3.83;;;;;;;27.04;74.00;96615.25;5005656;28;20060;-60
2023/06/26 08:51:28;;;;;;;3.80;3.70;;;;;;;26.79;75.16;96573.19;5005234;28;20058;-62
2023/06/26 08:53:59;;;;;;;3.83;3.72;;;;;;;27.15;72.80;96627.63;5005353;28;20053;-60
2023/06/26 08:56:37;;;;;;;3.97;3.88;;;;;;;27.15;71.11;96627.63;5004566;28;20062;-61
2023/06/26 08:59:05;;;;;;;3.95;3.85;;;;;;;26.91;72.30;96629.75;5005018;28;20049;-60
2023/06/26 09:01:32;;;;;;;3.97;3.88;;;;;;;26.81;73.50;96619.72;5004677;28;20132;-61
2023/06/26 09:03:59;;;;;;;4.00;3.90;;;;;;;25.97;72.54;96534.03;5005117;28;20096;-60
2023/06/26 09:06:26;;;;;;;3.60;3.50;;;;;;;26.29;70.68;96628.97;5004443;28;20560;-60
2023/06/26 09:08:53;;;;;;;3.83;3.72;;;;;;;26.09;71.19;96618.25;5004784;28;20081;-61
2023/06/26 09:11:20;;;;;;;3.70;3.60;;;;;;;26.19;76.30;96624.63;5020054;28;20072;-60
2023/06/26 09:13:47;;;;;;;3.63;3.53;;;;;;;25.32;74.45;96551.91;5020058;28;20057;-59
2023/06/26 09:16:14;;;;;;;3.53;3.42;;;;;;;26.11;73.32;96617.75;5005004;28;20366;-61
2023/06/26 09:18:44;;;;;;;3.55;3.45;;;;;;;26.46;73.50;96616.69;5019832;28;20326;-60
2023/06/26 09:21:11;;;;;;;3.65;3.55;;;;;;;26.39;73.28;96570.84;5004668;28;20050;-60
2023/06/26 09:23:39;;;;;;;3.80;3.70;;;;;;;26.89;68.34;96626.59;5005068;28;20065;-60
2023/06/26 09:26:06;;;;;;;3.60;3.50;;;;;;;26.77;69.98;96624.84;5004813;28;20076;-59
2023/06/26 09:28:34;;;;;;;3.78;3.67;;;;;;;26.92;69.15;96625.63;5004465;28;20188;-59
2023/06/26 09:31:05;;;;;;;3.47;3.38;;;;;;;27.19;70.32;96627.44;5019326;28;20070;-60
2023/06/26 09:33:36;;;;;;;3.88;3.78;;;;;;;27.20;67.01;96595.66;5005025;28;20049;-60
2023/06/26 09:36:09;;;;;;;3.90;3.80;;;;;;;27.49;72.18;96624.09;5019261;28;20068;-61
2023/06/26 09:38:36;;;;;;;4.03;3.92;;;;;;;27.23;68.87;96634.50;5004460;28;20149;-62
2023/06/26 09:41:03;;;;;;;3.95;3.85;;;;;;;27.53;71.06;96624.69;5004529;28;20050;-59
2023/06/26 09:43:31;;;;;;;4.18;4.07;;;;;;;27.16;71.49;96640.56;5004484;28;20547;-59
2023/06/26 09:46:00;;;;;;;4.00;3.90;;;;;;;27.56;72.74;96648.53;5019131;28;20084;-60
2023/06/26 09:48:29;;;;;;;4.10;4.00;;;;;;;26.77;72.27;96641.88;5004851;28;20128;-61
2023/06/26 09:50:56;;;;;;;4.10;4.00;;;;;;;26.52;71.81;96619.66;5019609;28;20052;-62
2023/06/26 09:53:42;;;;;;;3.60;3.50;;;;;;;26.50;72.56;96594.56;5017469;28;20499;-60
2023/06/26 09:56:18;;;;;;;3.92;3.83;;;;;;;26.36;69.95;96639.97;5018991;28;20513;-61
2023/06/26 09:58:45;;;;;;;3.95;3.85;;;;;;;26.50;73.12;96639.25;5019230;28;20053;-61
2023/06/26 10:01:12;;;;;;;3.60;3.50;;;;;;;25.87;71.60;96660.28;5004342;28;20057;-61
2023/06/26 10:03:39;;;;;;;4.10;4.00;;;;;;;26.05;73.35;96659.44;5019486;28;20730;-63
2023/06/26 10:06:10;;;;;;;3.75;3.65;;;;;;;25.90;71.53;96664.19;5004171;28;20077;-61
2023/06/26 10:08:39;;;;;;;3.53;3.42;;;;;;;25.64;72.87;96654.56;5004410;28;20073;-61
2023/06/26 10:11:13;;;;;;;3.42;3.33;;;;;;;25.50;74.35;96660.94;5004184;28;20061;-63
2023/06/26 10:13:46;;;;;;;3.13;3.03;;;;;;;24.94;75.18;96621.81;5004343;28;20362;-61
2023/06/26 10:16:19;;;;;;;3.47;3.38;;;;;;;25.11;72.76;96660.69;5019019;28;20140;-61
2023/06/26 10:18:47;;;;;;;;;;;;;;;25.43;75.87;96653.53;5005082;28;20054;-60
2023/06/26 10:21:14;;;;;;;3.53;3.42;;;;;;;25.59;73.68;96652.38;5003953;28;19925;-60
2023/06/26 10:23:44;;;;;;;3.22;3.13;;;;;;;25.88;73.21;96649.69;5018981;28;20056;-60
2023/06/26 10:26:11;;;;;;;3.28;3.17;;;;;;;26.17;70.77;96641.38;5004107;28;20424;-62
2023/06/26 10:28:39;;;;;;;3.67;3.58;;;;;;;26.18;71.42;96645.78;5004392;28;20086;-59
2023/06/26 10:31:09;;;;;;;3.78;3.67;;;;;;;26.14;71.48;96650.84;5003933;28;20057;-59
2023/06/26 10:33:37;;;;;;;3.42;3.33;;;;;;;25.96;79.63;96636.72;5019131;28;20062;-60
2023/06/26 10:36:18;;;;;;;3.40;3.30;;;;;;;25.53;91.33;96637.28;5003521;28;20624;-60
2023/06/26 10:38:50;;;;;;;3.70;3.60;;;;;;;25.64;77.42;96629.03;5005181;28;20076;-60
2023/06/26 10:41:21;;;;;;;3.42;3.33;;;;;;;25.50;76.92;96629.72;5007427;28;20104;-61
2023/06/26 10:43:59;;;;;;;3.50;3.40;;;;;;;25.54;76.33;96636.78;5007806;28;20145;-61
2023/06/26 10:46:33;;;;;;;3.60;3.50;;;;;;;25.51;78.14;96625.59;5007438;28;20092;-61
2023/06/26 10:49:00;;;;;;;3.42;3.33;;;;;;;25.29;77.68;96612.41;5007837;28;20053;-62
2023/06/26 10:51:29;;;;;;;3.72;3.63;;;;;;;25.62;77.86;96631.56;5007574;28;20064;-61
2023/06/26 10:53:57;;;;;;;3.60;3.50;;;;;;;25.55;76.30;96643.22;5008107;28;20046;-63
2023/06/26 10:56:42;;;;;;;3.28;3.17;;;;;;;25.52;75.32;96627.16;5007720;28;20093;-61
2023/06/26 10:59:19;;;;;;;3.53;3.42;;;;;;;25.44;79.49;96640.13;5023079;28;20556;-60
2023/06/26 11:01:57;;;;;;;3.50;3.40;;;;;;;25.31;82.36;96646.75;5022653;28;20058;-61
2023/06/26 11:04:37;;;;;;;3.55;3.45;;;;;;;25.09;79.71;96634.84;5006058;28;20596;-61
2023/06/26 11:07:24;;;;;;;3.25;3.15;;;;;;;25.14;82.62;96637.03;5007573;28;20049;-62
2023/06/26 11:10:02;;;;;;;3.22;3.13;;;;;;;25.08;83.29;96633.28;5022580;28;20062;-63
2023/06/26 11:12:42;;;;;;;3.00;2.90;;;;;;;25.16;85.49;96637.34;5007299;28;20085;-61
2023/06/26 11:15:19;;;;;;;3.60;3.50;;;;;;;25.09;78.19;96640.50;5022211;28;20085;-62
2023/06/26 11:17:47;;;;;;;3.40;3.30;;;;;;;24.89;81.51;96631.75;5007125;28;20452;-61
2023/06/26 11:20:15;;;;;;;3.42;3.33;;;;;;;24.76;84.42;96628.28;5022118;28;20057;-61
2023/06/26 11:22:43;;;;;;;3.45;3.35;;;;;;;24.28;85.55;96626.38;5021628;28;20053;-63
2023/06/26 11:25:10;;;;;;;2.70;2.60;;;;;;;24.22;85.26;96621.78;5007186;28;20112;-62
2023/06/26 11:27:38;;;;;;;2.95;2.85;;;;;;;23.81;88.46;96558.03;5022371;28;20480;-61
2023/06/26 11:30:10;;;;;;;3.10;3.00;;;;;;;24.44;89.24;96617.56;5007233;28;20064;-62
2023/06/26 11:32:38;;;;;;;3.22;3.13;;;;;;;24.33;85.04;96617.25;5012261;28;20057;-63
2023/06/26 11:35:05;;;;;;;2.92;2.83;;;;;;;24.32;90.31;96610.03;5011539;28;20157;-60